sensor_id;sensor_type;location;lat;lon;timestamp;pressure;altitude;pressure_sealevel;temperature;humidity
73501;BME280;61721;42.206;25.320;2023-05-14T00:01:11;100139.03;;;14.91;43.34
73501;BME280;61721;42.206;25.320;2023-05-14T00:03:46;100127.50;;;14.89;43.39
73501;BME280;61721;42.206;25.320;2023-05-14T00:06:22;100125.66;;;14.89;43.45
73501;BME280;61721;42.206;25.320;2023-05-14T00:09:02;100127.56;;;14.81;43.39
73501;BME280;61721;42.206;25.320;2023-05-14T00:11:39;100127.56;;;14.81;43.51
73501;BME280;61721;42.206;25.320;2023-05-14T00:14:14;100123.13;;;14.88;44.04
73501;BME280;61721;42.206;25.320;2023-05-14T00:16:50;100118.06;;;14.85;44.24
73501;BME280;61721;42.206;25.320;2023-05-14T00:19:26;100119.13;;;14.99;43.02
73501;BME280;61721;42.206;25.320;2023-05-14T00:22:02;100116.53;;;14.82;42.76
73501;BME280;61721;42.206;25.320;2023-05-14T00:24:42;100126.50;;;14.90;42.35
73501;BME280;61721;42.206;25.320;2023-05-14T00:27:18;100130.53;;;14.94;42.50
73501;BME280;61721;42.206;25.320;2023-05-14T00:29:54;100129.88;;;14.92;43.02
73501;BME280;61721;42.206;25.320;2023-05-14T00:32:31;100118.84;;;14.93;43.01
73501;BME280;61721;42.206;25.320;2023-05-14T00:35:07;100114.44;;;14.92;42.85
73501;BME280;61721;42.206;25.320;2023-05-14T00:37:43;100121.25;;;14.88;42.52
73501;BME280;61721;42.206;25.320;2023-05-14T00:40:25;100126.50;;;14.90;42.05
73501;BME280;61721;42.206;25.320;2023-05-14T00:43:02;100117.09;;;14.78;41.86
73501;BME280;61721;42.206;25.320;2023-05-14T00:45:38;100114.69;;;14.83;42.34
73501;BME280;61721;42.206;25.320;2023-05-14T00:48:14;100111.13;;;15.05;41.83
73501;BME280;61721;42.206;25.320;2023-05-14T00:50:50;100106.91;;;14.80;42.65
73501;BME280;61721;42.206;25.320;2023-05-14T00:53:33;100110.66;;;14.79;41.58
73501;BME280;61721;42.206;25.320;2023-05-14T00:56:11;100122.09;;;14.89;41.32
73501;BME280;61721;42.206;25.320;2023-05-14T00:58:48;100112.22;;;14.96;41.30
73501;BME280;61721;42.206;25.320;2023-05-14T01:01:32;100108.13;;;14.77;41.39
73501;BME280;61721;42.206;25.320;2023-05-14T01:04:09;100115.28;;;14.70;41.88
73501;BME280;61721;42.206;25.320;2023-05-14T01:06:53;100111.00;;;14.53;42.03
73501;BME280;61721;42.206;25.320;2023-05-14T01:09:41;100107.28;;;14.77;41.93
73501;BME280;61721;42.206;25.320;2023-05-14T01:12:28;100090.75;;;14.33;42.54
73501;BME280;61721;42.206;25.320;2023-05-14T01:15:09;100091.34;;;14.51;42.26
73501;BME280;61721;42.206;25.320;2023-05-14T01:17:50;100099.38;;;14.67;42.01
73501;BME280;61721;42.206;25.320;2023-05-14T01:20:27;100098.72;;;14.65;42.47
73501;BME280;61721;42.206;25.320;2023-05-14T01:23:06;100088.28;;;14.77;41.80
73501;BME280;61721;42.206;25.320;2023-05-14T01:25:42;100081.34;;;14.51;42.42
73501;BME280;61721;42.206;25.320;2023-05-14T01:28:19;100079.72;;;14.42;43.09
73501;BME280;61721;42.206;25.320;2023-05-14T01:31:06;100080.34;;;14.52;42.42
73501;BME280;61721;42.206;25.320;2023-05-14T01:33:45;100074.88;;;14.29;43.07
73501;BME280;61721;42.206;25.320;2023-05-14T01:36:23;100068.72;;;14.67;42.55
73501;BME280;61721;42.206;25.320;2023-05-14T01:39:02;100064.56;;;14.25;43.03
73501;BME280;61721;42.206;25.320;2023-05-14T01:41:41;100070.06;;;14.09;43.53
73501;BME280;61721;42.206;25.320;2023-05-14T01:44:18;100064.50;;;14.33;43.14
73501;BME280;61721;42.206;25.320;2023-05-14T01:46:55;100065.34;;;14.42;42.48
73501;BME280;61721;42.206;25.320;2023-05-14T01:49:30;100060.44;;;14.37;42.59
73501;BME280;61721;42.206;25.320;2023-05-14T01:52:16;100066.19;;;14.42;42.65
73501;BME280;61721;42.206;25.320;2023-05-14T01:54:55;100055.66;;;14.39;42.82
73501;BME280;61721;42.206;25.320;2023-05-14T01:57:32;100055.00;;;14.37;42.86
73501;BME280;61721;42.206;25.320;2023-05-14T02:00:08;100050.97;;;14.33;42.97
73501;BME280;61721;42.206;25.320;2023-05-14T02:02:45;100056.75;;;14.30;43.12
73501;BME280;61721;42.206;25.320;2023-05-14T02:05:20;100052.13;;;14.08;42.96
73501;BME280;61721;42.206;25.320;2023-05-14T02:07:57;100045.44;;;13.95;43.93
73501;BME280;61721;42.206;25.320;2023-05-14T02:10:35;100053.25;;;14.21;43.04
73501;BME280;61721;42.206;25.320;2023-05-14T02:13:12;100052.41;;;14.21;42.67
73501;BME280;61721;42.206;25.320;2023-05-14T02:15:48;100048.19;;;14.41;42.68
73501;BME280;61721;42.206;25.320;2023-05-14T02:18:26;100050.03;;;14.18;42.54
73501;BME280;61721;42.206;25.320;2023-05-14T02:21:03;100052.81;;;14.10;42.82
73501;BME280;61721;42.206;25.320;2023-05-14T02:23:38;100048.34;;;14.17;42.71
73501;BME280;61721;42.206;25.320;2023-05-14T02:26:18;100050.19;;;14.24;42.66
73501;BME280;61721;42.206;25.320;2023-05-14T02:28:55;100054.31;;;14.12;42.43
73501;BME280;61721;42.206;25.320;2023-05-14T02:31:32;100052.88;;;14.24;42.42
73501;BME280;61721;42.206;25.320;2023-05-14T02:34:08;100059.22;;;14.09;42.54
73501;BME280;61721;42.206;25.320;2023-05-14T02:36:45;100065.41;;;14.25;42.61
73501;BME280;61721;42.206;25.320;2023-05-14T02:39:22;100059.19;;;14.17;42.02
73501;BME280;61721;42.206;25.320;2023-05-14T02:42:00;100055.19;;;14.05;42.38
73501;BME280;61721;42.206;25.320;2023-05-14T02:44:37;100066.28;;;14.18;42.36
73501;BME280;61721;42.206;25.320;2023-05-14T02:47:12;100060.94;;;14.10;42.16
73501;BME280;61721;42.206;25.320;2023-05-14T02:49:49;100076.63;;;14.14;42.18
73501;BME280;61721;42.206;25.320;2023-05-14T02:52:25;100059.00;;;14.18;42.01
73501;BME280;61721;42.206;25.320;2023-05-14T02:55:06;100069.47;;;13.90;42.74
73501;BME280;61721;42.206;25.320;2023-05-14T02:57:45;100056.94;;;13.97;42.56
73501;BME280;61721;42.206;25.320;2023-05-14T03:00:23;100063.03;;;13.91;42.90
73501;BME280;61721;42.206;25.320;2023-05-14T03:03:01;100073.16;;;13.97;43.03
73501;BME280;61721;42.206;25.320;2023-05-14T03:05:37;100074.19;;;13.96;43.45
73501;BME280;61721;42.206;25.320;2023-05-14T03:08:13;100075.84;;;14.06;42.89
73501;BME280;61721;42.206;25.320;2023-05-14T03:10:50;100083.88;;;13.83;43.59
73501;BME280;61721;42.206;25.320;2023-05-14T03:13:28;100100.81;;;13.85;43.82
73501;BME280;61721;42.206;25.320;2023-05-14T03:16:05;100106.41;;;13.75;44.17
73501;BME280;61721;42.206;25.320;2023-05-14T03:18:41;100101.13;;;13.90;44.30
73501;BME280;61721;42.206;25.320;2023-05-14T03:21:18;100092.50;;;13.86;45.03
73501;BME280;61721;42.206;25.320;2023-05-14T03:23:53;100100.19;;;13.67;45.55
73501;BME280;61721;42.206;25.320;2023-05-14T03:26:31;100107.25;;;13.76;45.76
73501;BME280;61721;42.206;25.320;2023-05-14T03:29:09;100119.06;;;13.83;45.56
73501;BME280;61721;42.206;25.320;2023-05-14T03:31:49;100114.03;;;13.72;46.14
73501;BME280;61721;42.206;25.320;2023-05-14T03:34:26;100115.50;;;13.90;45.71
73501;BME280;61721;42.206;25.320;2023-05-14T03:37:02;100118.09;;;13.76;46.23
73501;BME280;61721;42.206;25.320;2023-05-14T03:39:37;100114.63;;;13.98;46.20
73501;BME280;61721;42.206;25.320;2023-05-14T03:42:14;100109.81;;;13.69;46.69
73501;BME280;61721;42.206;25.320;2023-05-14T03:44:52;100098.53;;;13.57;46.38
73501;BME280;61721;42.206;25.320;2023-05-14T03:47:29;100094.94;;;13.65;46.82
73501;BME280;61721;42.206;25.320;2023-05-14T03:50:06;100092.25;;;13.65;46.77
73501;BME280;61721;42.206;25.320;2023-05-14T03:52:43;100092.66;;;13.38;46.83
73501;BME280;61721;42.206;25.320;2023-05-14T03:55:19;100101.22;;;13.57;46.87
73501;BME280;61721;42.206;25.320;2023-05-14T03:57:55;100095.63;;;13.67;47.26
73501;BME280;61721;42.206;25.320;2023-05-14T04:00:33;100105.50;;;13.36;47.65
73501;BME280;61721;42.206;25.320;2023-05-14T04:03:10;100111.72;;;13.52;47.49
73501;BME280;61721;42.206;25.320;2023-05-14T04:05:46;100121.97;;;13.73;47.19
73501;BME280;61721;42.206;25.320;2023-05-14T04:08:22;100124.78;;;13.96;46.65
73501;BME280;61721;42.206;25.320;2023-05-14T04:10:58;100132.50;;;13.68;47.63
73501;BME280;61721;42.206;25.320;2023-05-14T04:13:36;100135.50;;;13.81;47.85
73501;BME280;61721;42.206;25.320;2023-05-14T04:16:14;100132.94;;;13.88;47.43
73501;BME280;61721;42.206;25.320;2023-05-14T04:18:51;100138.97;;;13.43;48.32
73501;BME280;61721;42.206;25.320;2023-05-14T04:21:28;100131.00;;;13.57;48.04
73501;BME280;61721;42.206;25.320;2023-05-14T04:24:04;100126.06;;;13.61;48.30
73501;BME280;61721;42.206;25.320;2023-05-14T04:26:41;100121.81;;;13.75;47.69
73501;BME280;61721;42.206;25.320;2023-05-14T04:29:17;100130.06;;;13.89;47.65
73501;BME280;61721;42.206;25.320;2023-05-14T04:31:59;100137.84;;;13.92;47.48
73501;BME280;61721;42.206;25.320;2023-05-14T04:34:36;100129.72;;;13.84;47.59
73501;BME280;61721;42.206;25.320;2023-05-14T04:37:13;100136.13;;;14.00;47.32
73501;BME280;61721;42.206;25.320;2023-05-14T04:39:51;100122.59;;;13.91;47.61
73501;BME280;61721;42.206;25.320;2023-05-14T04:42:27;100121.88;;;14.37;46.62
73501;BME280;61721;42.206;25.320;2023-05-14T04:45:04;100131.56;;;14.31;47.48
73501;BME280;61721;42.206;25.320;2023-05-14T04:47:49;100124.19;;;14.56;47.08
73501;BME280;61721;42.206;25.320;2023-05-14T04:50:26;100121.69;;;14.46;47.38
73501;BME280;61721;42.206;25.320;2023-05-14T04:53:03;100124.41;;;14.38;46.96
73501;BME280;61721;42.206;25.320;2023-05-14T04:55:39;100132.72;;;14.45;46.58
73501;BME280;61721;42.206;25.320;2023-05-14T04:58:15;100142.84;;;14.51;46.81
73501;BME280;61721;42.206;25.320;2023-05-14T05:00:52;100149.41;;;14.56;46.57
73501;BME280;61721;42.206;25.320;2023-05-14T05:03:30;100140.97;;;14.51;46.67
73501;BME280;61721;42.206;25.320;2023-05-14T05:06:07;100154.84;;;14.56;47.53
73501;BME280;61721;42.206;25.320;2023-05-14T05:08:49;100179.28;;;14.48;47.43
73501;BME280;61721;42.206;25.320;2023-05-14T05:11:26;100189.09;;;15.03;47.18
73501;BME280;61721;42.206;25.320;2023-05-14T05:14:02;100194.88;;;15.00;47.24
73501;BME280;61721;42.206;25.320;2023-05-14T05:16:39;100194.94;;;14.92;46.76
73501;BME280;61721;42.206;25.320;2023-05-14T05:19:17;100190.19;;;14.94;46.84
73501;BME280;61721;42.206;25.320;2023-05-14T05:21:54;100181.03;;;14.64;47.98
73501;BME280;61721;42.206;25.320;2023-05-14T05:24:31;100181.78;;;14.81;47.66
73501;BME280;61721;42.206;25.320;2023-05-14T05:27:07;100176.50;;;15.10;47.55
73501;BME280;61721;42.206;25.320;2023-05-14T05:29:43;100175.13;;;14.91;48.21
73501;BME280;61721;42.206;25.320;2023-05-14T05:32:21;100188.13;;;14.96;48.59
73501;BME280;61721;42.206;25.320;2023-05-14T05:35:12;100189.53;;;15.15;48.68
73501;BME280;61721;42.206;25.320;2023-05-14T05:37:48;100170.53;;;14.69;48.50
73501;BME280;61721;42.206;25.320;2023-05-14T05:40:26;100168.13;;;14.74;49.10
73501;BME280;61721;42.206;25.320;2023-05-14T05:43:05;100165.75;;;14.71;48.81
73501;BME280;61721;42.206;25.320;2023-05-14T05:45:42;100180.19;;;14.94;48.65
73501;BME280;61721;42.206;25.320;2023-05-14T05:48:19;100182.00;;;15.02;49.01
73501;BME280;61721;42.206;25.320;2023-05-14T05:50:57;100182.59;;;14.58;49.21
73501;BME280;61721;42.206;25.320;2023-05-14T05:53:37;100189.75;;;14.82;49.26
73501;BME280;61721;42.206;25.320;2023-05-14T05:56:14;100193.31;;;14.83;49.20
73501;BME280;61721;42.206;25.320;2023-05-14T05:58:54;100192.09;;;14.85;49.70
73501;BME280;61721;42.206;25.320;2023-05-14T06:01:33;100190.84;;;14.96;49.41
73501;BME280;61721;42.206;25.320;2023-05-14T06:04:09;100205.44;;;15.18;49.80
73501;BME280;61721;42.206;25.320;2023-05-14T06:06:47;100199.59;;;15.29;49.22
73501;BME280;61721;42.206;25.320;2023-05-14T06:09:24;100203.56;;;15.18;49.50
73501;BME280;61721;42.206;25.320;2023-05-14T06:12:00;100206.88;;;15.29;49.77
73501;BME280;61721;42.206;25.320;2023-05-14T06:14:37;100204.19;;;15.66;49.29
73501;BME280;61721;42.206;25.320;2023-05-14T06:17:13;100214.59;;;15.40;49.26
73501;BME280;61721;42.206;25.320;2023-05-14T06:19:49;100223.09;;;15.14;49.61
73501;BME280;61721;42.206;25.320;2023-05-14T06:22:28;100230.88;;;15.40;48.79
73501;BME280;61721;42.206;25.320;2023-05-14T06:25:07;100234.41;;;15.63;48.97
73501;BME280;61721;42.206;25.320;2023-05-14T06:27:43;100236.09;;;15.64;49.10
73501;BME280;61721;42.206;25.320;2023-05-14T06:30:19;100243.00;;;15.29;49.23
73501;BME280;61721;42.206;25.320;2023-05-14T06:33:02;100236.06;;;15.26;49.30
73501;BME280;61721;42.206;25.320;2023-05-14T06:35:40;100241.19;;;15.44;49.67
73501;BME280;61721;42.206;25.320;2023-05-14T06:38:26;100226.97;;;15.42;49.38
73501;BME280;61721;42.206;25.320;2023-05-14T06:44:12;100226.72;;;15.52;49.42
73501;BME280;61721;42.206;25.320;2023-05-14T06:46:50;100224.97;;;15.59;48.83
73501;BME280;61721;42.206;25.320;2023-05-14T06:49:27;100215.56;;;15.47;49.03
73501;BME280;61721;42.206;25.320;2023-05-14T06:52:03;100220.69;;;15.19;49.30
73501;BME280;61721;42.206;25.320;2023-05-14T06:54:42;100230.47;;;15.28;49.74
73501;BME280;61721;42.206;25.320;2023-05-14T06:57:19;100231.63;;;15.71;48.73
73501;BME280;61721;42.206;25.320;2023-05-14T06:59:56;100228.53;;;15.60;49.35
73501;BME280;61721;42.206;25.320;2023-05-14T07:02:33;100242.84;;;15.68;49.30
73501;BME280;61721;42.206;25.320;2023-05-14T07:05:11;100248.28;;;15.68;49.47
73501;BME280;61721;42.206;25.320;2023-05-14T07:07:47;100253.31;;;15.56;49.20
73501;BME280;61721;42.206;25.320;2023-05-14T07:10:25;100249.59;;;15.72;49.63
73501;BME280;61721;42.206;25.320;2023-05-14T07:13:03;100254.56;;;15.69;48.93
73501;BME280;61721;42.206;25.320;2023-05-14T07:15:42;100260.84;;;15.69;49.07
73501;BME280;61721;42.206;25.320;2023-05-14T07:18:19;100271.03;;;16.05;48.40
73501;BME280;61721;42.206;25.320;2023-05-14T07:20:55;100272.50;;;15.93;48.90
73501;BME280;61721;42.206;25.320;2023-05-14T07:23:31;100282.25;;;16.02;49.40
73501;BME280;61721;42.206;25.320;2023-05-14T07:26:11;100289.91;;;15.83;49.83
73501;BME280;61721;42.206;25.320;2023-05-14T07:28:47;100302.22;;;16.09;49.65
73501;BME280;61721;42.206;25.320;2023-05-14T07:31:23;100294.00;;;15.79;49.68
73501;BME280;61721;42.206;25.320;2023-05-14T07:33:59;100291.47;;;15.78;49.54
73501;BME280;61721;42.206;25.320;2023-05-14T07:36:43;100292.88;;;15.74;50.30
73501;BME280;61721;42.206;25.320;2023-05-14T07:39:19;100297.88;;;15.62;50.09
73501;BME280;61721;42.206;25.320;2023-05-14T07:41:59;100300.16;;;15.73;50.70
73501;BME280;61721;42.206;25.320;2023-05-14T07:44:36;100295.47;;;15.67;50.69
73501;BME280;61721;42.206;25.320;2023-05-14T07:47:13;100298.19;;;16.05;50.57
73501;BME280;61721;42.206;25.320;2023-05-14T07:49:54;100300.19;;;16.26;49.65
73501;BME280;61721;42.206;25.320;2023-05-14T07:52:30;100282.84;;;16.27;51.56
73501;BME280;61721;42.206;25.320;2023-05-14T07:55:12;100284.91;;;16.10;51.90
73501;BME280;61721;42.206;25.320;2023-05-14T07:57:53;100276.25;;;15.91;52.13
73501;BME280;61721;42.206;25.320;2023-05-14T08:00:31;100266.22;;;15.92;53.14
73501;BME280;61721;42.206;25.320;2023-05-14T08:03:12;100263.47;;;15.77;54.11
73501;BME280;61721;42.206;25.320;2023-05-14T08:05:48;100262.75;;;15.83;54.43
73501;BME280;61721;42.206;25.320;2023-05-14T08:08:25;100262.38;;;15.86;54.03
73501;BME280;61721;42.206;25.320;2023-05-14T08:11:07;100263.09;;;15.80;55.11
73501;BME280;61721;42.206;25.320;2023-05-14T08:13:45;100274.28;;;16.00;55.68
73501;BME280;61721;42.206;25.320;2023-05-14T08:16:23;100282.59;;;16.36;55.12
73501;BME280;61721;42.206;25.320;2023-05-14T08:18:59;100280.91;;;16.35;54.96
73501;BME280;61721;42.206;25.320;2023-05-14T08:21:38;100286.13;;;16.22;55.73
73501;BME280;61721;42.206;25.320;2023-05-14T08:24:41;100289.97;;;16.13;56.62
73501;BME280;61721;42.206;25.320;2023-05-14T08:27:18;100278.53;;;16.03;55.78
73501;BME280;61721;42.206;25.320;2023-05-14T08:29:56;100260.31;;;15.88;56.68
73501;BME280;61721;42.206;25.320;2023-05-14T08:32:33;100255.41;;;15.46;59.05
73501;BME280;61721;42.206;25.320;2023-05-14T08:35:37;100258.66;;;15.65;58.43
73501;BME280;61721;42.206;25.320;2023-05-14T08:38:15;100262.63;;;15.77;59.39
73501;BME280;61721;42.206;25.320;2023-05-14T08:40:56;100276.41;;;15.75;59.74
73501;BME280;61721;42.206;25.320;2023-05-14T08:43:56;100273.81;;;15.13;60.18
73501;BME280;61721;42.206;25.320;2023-05-14T08:46:35;100286.47;;;15.44;62.34
73501;BME280;61721;42.206;25.320;2023-05-14T08:49:17;100291.38;;;15.71;60.56
73501;BME280;61721;42.206;25.320;2023-05-14T08:52:00;100304.84;;;16.02;61.25
73501;BME280;61721;42.206;25.320;2023-05-14T08:54:37;100312.50;;;15.99;61.04
73501;BME280;61721;42.206;25.320;2023-05-14T08:57:13;100322.72;;;15.59;62.33
73501;BME280;61721;42.206;25.320;2023-05-14T08:59:50;100319.25;;;15.65;60.99
73501;BME280;61721;42.206;25.320;2023-05-14T09:02:30;100307.16;;;15.45;63.44
73501;BME280;61721;42.206;25.320;2023-05-14T09:05:06;100315.63;;;15.50;64.68
73501;BME280;61721;42.206;25.320;2023-05-14T09:07:46;100315.38;;;15.37;65.41
73501;BME280;61721;42.206;25.320;2023-05-14T09:10:25;100324.03;;;15.32;65.00
73501;BME280;61721;42.206;25.320;2023-05-14T09:13:01;100322.28;;;15.16;65.89
73501;BME280;61721;42.206;25.320;2023-05-14T09:15:39;100332.38;;;15.53;64.75
73501;BME280;61721;42.206;25.320;2023-05-14T09:18:17;100332.22;;;15.55;66.10
73501;BME280;61721;42.206;25.320;2023-05-14T09:20:54;100335.53;;;15.88;66.04
73501;BME280;61721;42.206;25.320;2023-05-14T09:23:31;100328.03;;;15.44;66.42
73501;BME280;61721;42.206;25.320;2023-05-14T09:26:08;100317.97;;;15.53;66.48
73501;BME280;61721;42.206;25.320;2023-05-14T09:28:44;100299.50;;;15.71;66.32
73501;BME280;61721;42.206;25.320;2023-05-14T09:31:20;100295.41;;;15.30;68.07
73501;BME280;61721;42.206;25.320;2023-05-14T09:33:59;100291.69;;;15.00;68.77
73501;BME280;61721;42.206;25.320;2023-05-14T09:36:36;100290.47;;;15.02;67.76
73501;BME280;61721;42.206;25.320;2023-05-14T09:39:12;100284.25;;;15.24;69.29
73501;BME280;61721;42.206;25.320;2023-05-14T09:41:48;100275.63;;;15.21;70.11
73501;BME280;61721;42.206;25.320;2023-05-14T09:44:25;100281.31;;;15.57;69.42
73501;BME280;61721;42.206;25.320;2023-05-14T09:47:10;100274.59;;;15.45;67.50
73501;BME280;61721;42.206;25.320;2023-05-14T09:49:50;100258.88;;;15.40;67.48
73501;BME280;61721;42.206;25.320;2023-05-14T09:52:29;100251.81;;;15.54;67.20
73501;BME280;61721;42.206;25.320;2023-05-14T09:55:06;100256.69;;;15.36;68.94
73501;BME280;61721;42.206;25.320;2023-05-14T09:57:43;100258.75;;;15.34;67.74
73501;BME280;61721;42.206;25.320;2023-05-14T10:00:20;100261.22;;;15.43;67.58
73501;BME280;61721;42.206;25.320;2023-05-14T10:02:57;100269.44;;;15.04;68.80
73501;BME280;61721;42.206;25.320;2023-05-14T10:05:43;100285.69;;;15.81;67.54
73501;BME280;61721;42.206;25.320;2023-05-14T10:08:23;100264.56;;;15.68;65.72
73501;BME280;61721;42.206;25.320;2023-05-14T10:11:01;100249.50;;;15.43;66.36
73501;BME280;61721;42.206;25.320;2023-05-14T10:13:40;100235.78;;;15.21;69.85
73501;BME280;61721;42.206;25.320;2023-05-14T10:16:20;100238.34;;;15.15;70.79
73501;BME280;61721;42.206;25.320;2023-05-14T10:19:00;100240.53;;;15.42;68.96
73501;BME280;61721;42.206;25.320;2023-05-14T10:21:46;100234.84;;;15.52;69.54
73501;BME280;61721;42.206;25.320;2023-05-14T10:24:23;100228.53;;;15.37;70.23
73501;BME280;61721;42.206;25.320;2023-05-14T10:27:00;100239.53;;;15.96;68.53
73501;BME280;61721;42.206;25.320;2023-05-14T10:29:36;100232.63;;;16.08;68.74
73501;BME280;61721;42.206;25.320;2023-05-14T10:32:14;100236.88;;;15.58;69.91
73501;BME280;61721;42.206;25.320;2023-05-14T10:34:51;100247.72;;;15.35;68.28
73501;BME280;61721;42.206;25.320;2023-05-14T10:37:31;100232.03;;;15.22;69.18
73501;BME280;61721;42.206;25.320;2023-05-14T10:40:08;100220.25;;;15.53;69.03
73501;BME280;61721;42.206;25.320;2023-05-14T10:42:45;100223.13;;;15.60;69.07
73501;BME280;61721;42.206;25.320;2023-05-14T10:45:22;100214.72;;;15.99;68.41
73501;BME280;61721;42.206;25.320;2023-05-14T10:47:58;100215.22;;;15.65;67.65
73501;BME280;61721;42.206;25.320;2023-05-14T10:50:34;100220.41;;;15.74;67.51
73501;BME280;61721;42.206;25.320;2023-05-14T10:53:14;100231.47;;;15.50;69.26
73501;BME280;61721;42.206;25.320;2023-05-14T10:55:53;100238.00;;;15.41;69.45
73501;BME280;61721;42.206;25.320;2023-05-14T10:58:30;100238.88;;;15.56;68.61
73501;BME280;61721;42.206;25.320;2023-05-14T11:01:09;100239.72;;;15.94;67.58
73501;BME280;61721;42.206;25.320;2023-05-14T11:03:46;100228.97;;;16.15;66.73
73501;BME280;61721;42.206;25.320;2023-05-14T11:06:22;100216.94;;;15.80;68.07
73501;BME280;61721;42.206;25.320;2023-05-14T11:09:03;100229.25;;;16.06;68.53
73501;BME280;61721;42.206;25.320;2023-05-14T11:11:41;100213.69;;;16.00;68.58
73501;BME280;61721;42.206;25.320;2023-05-14T11:14:19;100219.97;;;16.00;69.19
73501;BME280;61721;42.206;25.320;2023-05-14T11:16:56;100201.13;;;15.99;68.34
73501;BME280;61721;42.206;25.320;2023-05-14T11:19:33;100180.44;;;16.12;68.57
73501;BME280;61721;42.206;25.320;2023-05-14T11:22:09;100184.66;;;16.15;68.89
73501;BME280;61721;42.206;25.320;2023-05-14T11:24:49;100190.06;;;16.44;67.91
73501;BME280;61721;42.206;25.320;2023-05-14T11:27:25;100196.00;;;16.33;67.61
73501;BME280;61721;42.206;25.320;2023-05-14T11:30:01;100200.50;;;16.26;67.67
73501;BME280;61721;42.206;25.320;2023-05-14T11:32:38;100181.47;;;16.26;69.41
73501;BME280;61721;42.206;25.320;2023-05-14T11:35:15;100177.16;;;15.87;69.79
73501;BME280;61721;42.206;25.320;2023-05-14T11:37:53;100178.09;;;16.24;69.81
73501;BME280;61721;42.206;25.320;2023-05-14T11:40:31;100174.91;;;16.35;69.71
73501;BME280;61721;42.206;25.320;2023-05-14T11:43:08;100194.19;;;16.70;67.62
73501;BME280;61721;42.206;25.320;2023-05-14T11:45:48;100188.19;;;16.96;66.80
73501;BME280;61721;42.206;25.320;2023-05-14T11:48:24;100181.22;;;17.08;66.96
73501;BME280;61721;42.206;25.320;2023-05-14T11:51:00;100166.63;;;17.15;66.22
73501;BME280;61721;42.206;25.320;2023-05-14T11:53:36;100188.19;;;17.38;66.20
73501;BME280;61721;42.206;25.320;2023-05-14T11:56:14;100191.13;;;17.15;66.39
73501;BME280;61721;42.206;25.320;2023-05-14T11:58:56;100192.72;;;16.88;66.21
73501;BME280;61721;42.206;25.320;2023-05-14T12:01:35;100188.09;;;16.53;65.92
73501;BME280;61721;42.206;25.320;2023-05-14T12:04:12;100175.81;;;16.42;67.47
73501;BME280;61721;42.206;25.320;2023-05-14T12:06:51;100164.03;;;16.35;66.24
73501;BME280;61721;42.206;25.320;2023-05-14T12:09:27;100163.56;;;16.17;66.47
73501;BME280;61721;42.206;25.320;2023-05-14T12:12:10;100155.50;;;16.23;65.08
73501;BME280;61721;42.206;25.320;2023-05-14T12:14:46;100154.88;;;16.58;65.09
73501;BME280;61721;42.206;25.320;2023-05-14T12:17:24;100165.00;;;16.64;64.53
73501;BME280;61721;42.206;25.320;2023-05-14T12:20:00;100163.84;;;16.87;64.28
73501;BME280;61721;42.206;25.320;2023-05-14T12:22:40;100172.72;;;17.39;62.55
73501;BME280;61721;42.206;25.320;2023-05-14T12:25:17;100174.50;;;17.53;64.85
73501;BME280;61721;42.206;25.320;2023-05-14T12:27:55;100183.56;;;17.60;62.26
73501;BME280;61721;42.206;25.320;2023-05-14T12:30:36;100176.97;;;17.97;62.17
73501;BME280;61721;42.206;25.320;2023-05-14T12:33:13;100173.69;;;17.80;62.23
73501;BME280;61721;42.206;25.320;2023-05-14T12:35:49;100167.13;;;17.68;62.27
73501;BME280;61721;42.206;25.320;2023-05-14T12:38:25;100164.75;;;17.37;62.71
73501;BME280;61721;42.206;25.320;2023-05-14T12:41:01;100158.78;;;17.27;62.62
73501;BME280;61721;42.206;25.320;2023-05-14T12:43:42;100152.91;;;17.02;64.99
73501;BME280;61721;42.206;25.320;2023-05-14T12:46:26;100155.97;;;17.42;63.18
73501;BME280;61721;42.206;25.320;2023-05-14T12:49:02;100147.91;;;16.84;64.28
73501;BME280;61721;42.206;25.320;2023-05-14T12:51:38;100142.28;;;17.07;63.19
73501;BME280;61721;42.206;25.320;2023-05-14T12:54:14;100134.34;;;17.34;62.95
73501;BME280;61721;42.206;25.320;2023-05-14T12:56:50;100122.72;;;16.97;63.33
73501;BME280;61721;42.206;25.320;2023-05-14T12:59:30;100116.09;;;17.56;62.66
73501;BME280;61721;42.206;25.320;2023-05-14T13:02:07;100113.25;;;17.42;63.76
73501;BME280;61721;42.206;25.320;2023-05-14T13:04:44;100112.22;;;17.15;63.50
73501;BME280;61721;42.206;25.320;2023-05-14T13:07:20;100104.91;;;16.95;63.48
73501;BME280;61721;42.206;25.320;2023-05-14T13:09:56;100107.63;;;17.44;62.30
73501;BME280;61721;42.206;25.320;2023-05-14T13:12:32;100092.88;;;17.32;62.09
73501;BME280;61721;42.206;25.320;2023-05-14T13:15:11;100088.78;;;16.93;63.29
73501;BME280;61721;42.206;25.320;2023-05-14T13:17:47;100075.41;;;17.19;62.49
73501;BME280;61721;42.206;25.320;2023-05-14T13:20:23;100080.88;;;16.77;63.82
73501;BME280;61721;42.206;25.320;2023-05-14T13:23:00;100091.50;;;16.93;63.70
73501;BME280;61721;42.206;25.320;2023-05-14T13:25:37;100094.09;;;16.44;64.32
73501;BME280;61721;42.206;25.320;2023-05-14T13:28:13;100086.91;;;16.58;65.78
73501;BME280;61721;42.206;25.320;2023-05-14T13:31:07;100080.09;;;16.83;64.99
73501;BME280;61721;42.206;25.320;2023-05-14T13:33:44;100089.03;;;16.77;63.21
73501;BME280;61721;42.206;25.320;2023-05-14T13:36:20;100100.53;;;17.22;62.76
73501;BME280;61721;42.206;25.320;2023-05-14T13:38:56;100095.94;;;17.22;62.49